createdAt,value
2018-08-22T00:01:58.147Z,98295.51
2018-08-22T00:04:25.750Z,98297.98
2018-08-22T00:06:53.342Z,98297.39
2018-08-22T00:09:20.971Z,98292.67
2018-08-22T00:11:48.579Z,98296.50
2018-08-22T00:14:16.199Z,98291.13
2018-08-22T00:16:43.932Z,98288.66
2018-08-22T00:19:11.612Z,98291.39
2018-08-22T00:21:39.311Z,98281.28
2018-08-22T00:24:06.945Z,98280.86
2018-08-22T00:26:34.567Z,98280.73
2018-08-22T00:29:02.190Z,98284.09
2018-08-22T00:31:29.871Z,98275.98
2018-08-22T00:33:57.455Z,98281.30
2018-08-22T00:36:25.110Z,98280.46
2018-08-22T00:38:52.735Z,98279.06
2018-08-22T00:41:20.367Z,98273.83
2018-08-22T00:43:47.983Z,98279.32
2018-08-22T00:46:15.615Z,98279.24
2018-08-22T00:48:43.306Z,98274.09
2018-08-22T00:51:10.977Z,98280.23
2018-08-22T00:53:38.588Z,98279.98
2018-08-22T00:56:06.215Z,98276.18
2018-08-22T00:58:33.887Z,98281.51
2018-08-22T01:01:01.543Z,98273.08
2018-08-22T01:03:29.274Z,98262.38
2018-08-22T01:05:56.868Z,98268.91
2018-08-22T01:08:24.492Z,98266.22
2018-08-22T01:10:52.077Z,98266.73
2018-08-22T01:13:19.890Z,98262.56
2018-08-22T01:15:47.503Z,98263.41
2018-08-22T01:18:15.102Z,98258.72
2018-08-22T01:20:42.823Z,98255.16
2018-08-22T01:23:10.522Z,98252.22
2018-08-22T01:25:38.241Z,98257.67
2018-08-22T01:28:05.829Z,98260.22
2018-08-22T01:30:33.519Z,98256.77
2018-08-22T01:33:01.099Z,98257.96
2018-08-22T01:35:28.694Z,98255.58
2018-08-22T01:37:56.326Z,98250.80
2018-08-22T01:40:23.986Z,98244.62
2018-08-22T01:42:51.555Z,98248.76
2018-08-22T01:45:19.230Z,98250.25
2018-08-22T01:47:46.829Z,98250.25
2018-08-22T01:50:14.433Z,98247.02
2018-08-22T01:52:42.161Z,98247.95
2018-08-22T01:55:09.802Z,98252.17
2018-08-22T01:57:37.404Z,98249.61
2018-08-22T02:00:05.623Z,98254.81
2018-08-22T02:02:33.207Z,98249.73
2018-08-22T02:05:00.807Z,98247.83
2018-08-22T02:07:28.526Z,98246.11
2018-08-22T02:09:56.123Z,98238.55
2018-08-22T02:12:23.809Z,98237.19
2018-08-22T02:14:51.411Z,98240.02
2018-08-22T02:17:19.216Z,98235.55
2018-08-22T02:19:46.782Z,98235.94
2018-08-22T02:22:14.606Z,98233.55
2018-08-22T02:24:42.206Z,98230.33
2018-08-22T02:27:09.791Z,98235.94
2018-08-22T02:29:37.433Z,98231.85
2018-08-22T02:32:05.524Z,98236.80
2018-08-22T02:34:33.130Z,98231.81
2018-08-22T02:37:00.763Z,98230.70
2018-08-22T02:39:28.359Z,98232.23
2018-08-22T02:41:55.968Z,98228.66
2018-08-22T02:44:23.642Z,98225.59
2018-08-22T02:46:51.255Z,98228.02
2018-08-22T02:49:18.956Z,98224.20
2018-08-22T02:51:46.657Z,98223.91
2018-08-22T02:54:14.271Z,98224.51
2018-08-22T02:56:41.923Z,98228.72
2018-08-22T02:59:09.579Z,98230.03
2018-08-22T03:01:37.248Z,98221.99
2018-08-22T03:04:04.845Z,98216.58
2018-08-22T03:06:32.538Z,98216.77
2018-08-22T03:09:00.116Z,98219.03
2018-08-22T03:11:27.687Z,98221.17
2018-08-22T03:13:55.303Z,98217.73
2018-08-22T03:16:22.907Z,98215.20
2018-08-22T03:18:50.500Z,98219.03
2018-08-22T03:21:18.132Z,98215.33
2018-08-22T03:23:45.816Z,98218.14
2018-08-22T03:26:13.457Z,98216.83
2018-08-22T03:28:41.215Z,98213.64
2018-08-22T03:31:08.820Z,98221.14
2018-08-22T03:33:36.401Z,98216.28
2018-08-22T03:36:04.050Z,98222.28
2018-08-22T03:38:31.683Z,98222.41
2018-08-22T03:40:59.268Z,98221.42
2018-08-22T03:43:26.991Z,98213.42
2018-08-22T03:45:54.603Z,98219.96
2018-08-22T03:48:22.227Z,98222.89
2018-08-22T03:50:49.843Z,98218.39
2018-08-22T03:53:17.546Z,98218.91
2018-08-22T03:55:45.284Z,98213.97
2018-08-22T03:58:12.927Z,98211.29
2018-08-22T04:00:40.616Z,98215.27
2018-08-22T04:03:08.209Z,98215.63
2018-08-22T04:05:35.917Z,98217.63
2018-08-22T04:08:03.556Z,98213.07
2018-08-22T04:10:31.159Z,98213.87
2018-08-22T04:12:58.785Z,98215.53
2018-08-22T04:15:26.424Z,98218.59
2018-08-22T04:17:54.027Z,98217.06
2018-08-22T04:20:21.733Z,98219.39
2018-08-22T04:22:49.335Z,98226.14
2018-08-22T04:25:16.939Z,98224.11
2018-08-22T04:27:44.651Z,98219.00
2018-08-22T04:30:12.284Z,98216.45
2018-08-22T04:32:39.906Z,98223.21
2018-08-22T04:35:07.528Z,98215.84
2018-08-22T04:37:35.218Z,98226.53
2018-08-22T04:40:02.910Z,98227.30
2018-08-22T04:42:30.618Z,98230.09
2018-08-22T04:44:58.204Z,98219.52
2018-08-22T04:47:25.919Z,98221.94
2018-08-22T04:49:53.557Z,98212.75
2018-08-22T04:52:21.230Z,98218.78
2018-08-22T04:54:48.827Z,98222.45
2018-08-22T04:57:16.533Z,98211.95
2018-08-22T04:59:44.111Z,98214.73
2018-08-22T05:02:11.699Z,98216.77
2018-08-22T05:04:39.310Z,98213.87
2018-08-22T05:07:06.901Z,98213.42
2018-08-22T05:09:34.501Z,98218.88
2018-08-22T05:12:02.171Z,98215.81
2018-08-22T05:14:29.853Z,98215.30
2018-08-22T05:16:57.460Z,98218.07
2018-08-22T05:19:25.184Z,98211.34
2018-08-22T05:21:52.798Z,98216.41
2018-08-22T05:24:20.414Z,98214.68
2018-08-22T05:26:48.007Z,98217.78
2018-08-22T05:29:15.636Z,98213.02
2018-08-22T05:31:43.331Z,98215.39
2018-08-22T05:34:11.084Z,98207.55
2018-08-22T05:36:38.776Z,98206.69
2018-08-22T05:39:08.915Z,98204.72
2018-08-22T05:41:36.633Z,98206.81
2018-08-22T05:44:04.236Z,98203.25
2018-08-22T05:46:31.842Z,98206.16
2018-08-22T05:48:59.489Z,98198.73
2018-08-22T05:51:27.149Z,98195.55
2018-08-22T05:53:54.815Z,98199.69
2018-08-22T05:56:22.454Z,98201.22
2018-08-22T05:58:50.068Z,98195.80
2018-08-22T06:01:17.647Z,98199.34
2018-08-22T06:03:45.360Z,98196.81
2018-08-22T06:06:13.009Z,98197.56
2018-08-22T06:08:40.608Z,98189.45
2018-08-22T06:11:08.327Z,98194.53
2018-08-22T06:13:36.010Z,98195.88
2018-08-22T06:16:03.627Z,98196.34
2018-08-22T06:18:31.290Z,98203.74
2018-08-22T06:20:58.930Z,98206.59
2018-08-22T06:23:26.592Z,98204.23
2018-08-22T06:25:54.264Z,98206.53
2018-08-22T06:28:21.941Z,98206.19
2018-08-22T06:30:49.533Z,98204.02
2018-08-22T06:33:17.246Z,98196.07
2018-08-22T06:35:44.976Z,98196.27
2018-08-22T06:38:12.581Z,98194.73
2018-08-22T06:40:40.293Z,98195.75
2018-08-22T06:43:07.871Z,98194.52
2018-08-22T06:45:35.451Z,98191.03
2018-08-22T06:48:03.136Z,98191.44
2018-08-22T06:50:30.818Z,98193.33
2018-08-22T06:52:58.420Z,98188.53
2018-08-22T06:55:26.126Z,98185.94
2018-08-22T06:57:53.737Z,98182.59
2018-08-22T07:00:21.324Z,98184.16
2018-08-22T07:02:48.956Z,98184.17
2018-08-22T07:05:16.619Z,98181.92
2018-08-22T07:07:44.368Z,98188.20
2018-08-22T07:10:12.110Z,98184.05
2018-08-22T07:12:39.732Z,98184.66
2018-08-22T07:15:07.635Z,98185.03
2018-08-22T07:17:35.513Z,98170.64
2018-08-22T07:20:03.297Z,98173.88
2018-08-22T07:22:30.942Z,98167.00
2018-08-22T07:24:58.617Z,98168.91
2018-08-22T07:27:26.297Z,98166.84
2018-08-22T07:29:53.876Z,98165.14
2018-08-22T07:32:21.623Z,98167.48
2018-08-22T07:34:49.204Z,98168.22
2018-08-22T07:37:16.836Z,98166.30
2018-08-22T07:39:44.543Z,98164.56
2018-08-22T07:42:12.217Z,98163.27
2018-08-22T07:44:39.815Z,98167.67
2018-08-22T07:47:07.492Z,98164.99
2018-08-22T07:49:35.175Z,98164.11
2018-08-22T07:52:02.803Z,98161.34
2018-08-22T07:54:50.345Z,98160.41
2018-08-22T07:57:21.128Z,98162.02
2018-08-22T07:59:49.130Z,98163.17
2018-08-22T08:02:16.760Z,98162.81
2018-08-22T08:04:44.377Z,98166.53
2018-08-22T08:07:12.241Z,98170.09
2018-08-22T08:09:39.971Z,98163.39
2018-08-22T08:12:07.568Z,98163.22
2018-08-22T08:14:35.282Z,98164.81
2018-08-22T08:17:02.939Z,98166.36
2018-08-22T08:19:30.605Z,98157.30
2018-08-22T08:21:58.223Z,98152.12
2018-08-22T08:24:25.886Z,98152.67
2018-08-22T08:26:53.509Z,98152.09
2018-08-22T08:29:21.213Z,98149.47
2018-08-22T08:31:48.896Z,98149.09
2018-08-22T08:34:16.535Z,98149.06
2018-08-22T08:36:44.230Z,98150.84
2018-08-22T08:39:12.257Z,98143.59
2018-08-22T08:41:40.046Z,98142.65
2018-08-22T08:44:07.686Z,98135.05
2018-08-22T08:46:35.364Z,98126.97
2018-08-22T08:49:03.155Z,98119.13
2018-08-22T08:51:30.757Z,98123.73
2018-08-22T08:53:58.505Z,98118.87
2018-08-22T08:56:26.184Z,98116.88
2018-08-22T08:58:53.893Z,98114.56
2018-08-22T09:01:21.703Z,98114.81
2018-08-22T09:03:49.394Z,98116.64
2018-08-22T09:06:16.948Z,98109.92
2018-08-22T09:08:44.654Z,98109.73
2018-08-22T09:11:12.295Z,98107.23
2018-08-22T09:13:47.564Z,98104.70
2018-08-22T09:16:15.933Z,98102.91
2018-08-22T09:18:43.897Z,98094.38
2018-08-22T09:21:11.592Z,98097.02
2018-08-22T09:23:39.198Z,98089.28
2018-08-22T09:26:06.847Z,98084.64
2018-08-22T09:28:34.568Z,98086.57
2018-08-22T09:31:02.159Z,98085.66
2018-08-22T09:33:29.835Z,98090.77
2018-08-22T09:35:57.489Z,98087.93
2018-08-22T09:38:25.130Z,98086.00
2018-08-22T09:40:52.754Z,98091.25
2018-08-22T09:43:20.506Z,98087.39
2018-08-22T09:45:48.062Z,98081.77
2018-08-22T09:48:15.725Z,98081.42
2018-08-22T09:50:43.421Z,98077.41
2018-08-22T09:53:11.024Z,98078.40
2018-08-22T09:55:38.658Z,98078.31
2018-08-22T09:58:06.310Z,98072.89
2018-08-22T10:00:39.487Z,98070.73
2018-08-22T10:03:07.116Z,98065.55
2018-08-22T10:05:34.790Z,98068.33
2018-08-22T10:08:02.417Z,98059.83
2018-08-22T10:10:30.098Z,98063.64
2018-08-22T10:12:57.704Z,98059.67
2018-08-22T10:15:25.368Z,98062.95
2018-08-22T10:17:53.005Z,98064.25
2018-08-22T10:20:20.634Z,98066.44
2018-08-22T10:22:48.271Z,98062.34
2018-08-22T10:25:15.959Z,98051.67
2018-08-22T10:27:43.632Z,98049.70
2018-08-22T10:30:11.332Z,98043.69
2018-08-22T10:32:39.076Z,98056.36
2018-08-22T10:35:06.700Z,98051.38
2018-08-22T10:37:34.323Z,98055.31
2018-08-22T10:40:01.968Z,98050.58
2018-08-22T10:42:29.659Z,98045.69
2018-08-22T10:44:57.274Z,98038.84
2018-08-22T10:47:24.912Z,98043.30
2018-08-22T10:49:52.505Z,98042.23
2018-08-22T10:52:20.119Z,98039.83
2018-08-22T10:54:47.803Z,98037.47
2018-08-22T10:57:15.479Z,98036.09
2018-08-22T10:59:43.212Z,98030.84
2018-08-22T11:02:10.875Z,98030.25
2018-08-22T11:04:38.548Z,98024.12
2018-08-22T11:07:06.194Z,98022.62
2018-08-22T11:09:33.896Z,98022.34
2018-08-22T11:12:01.501Z,98020.63
2018-08-22T11:14:29.108Z,98020.97
2018-08-22T11:16:56.756Z,98022.91
2018-08-22T11:19:24.406Z,98015.43
2018-08-22T11:22:03.412Z,98018.03
2018-08-22T11:24:42.448Z,98020.94
2018-08-22T11:27:21.256Z,98013.20
2018-08-22T11:30:00.094Z,98010.98
2018-08-22T11:32:39.105Z,98006.77
2018-08-22T11:35:05.499Z,98012.12
2018-08-22T11:37:33.191Z,98009.89
2018-08-22T11:40:00.883Z,98005.52
2018-08-22T11:42:28.545Z,98004.39
2018-08-22T11:44:56.321Z,98006.16
2018-08-22T11:47:24.051Z,98002.80
2018-08-22T11:49:51.727Z,98002.16
2018-08-22T11:52:19.339Z,98014.30
2018-08-22T11:54:47.015Z,98006.94
2018-08-22T11:57:14.662Z,98009.41
2018-08-22T11:59:42.253Z,98009.63
2018-08-22T12:02:09.965Z,98011.69
2018-08-22T12:04:37.660Z,98004.06
2018-08-22T12:07:05.312Z,98002.87
2018-08-22T12:09:32.952Z,98002.65
2018-08-22T12:12:00.553Z,97991.58
2018-08-22T12:14:28.257Z,97996.56
2018-08-22T12:16:55.907Z,97991.94
2018-08-22T12:19:23.616Z,98000.31
2018-08-22T12:21:51.252Z,97997.25
2018-08-22T12:24:18.906Z,97988.39
2018-08-22T12:26:46.535Z,97995.09
2018-08-22T12:29:14.458Z,97982.19
2018-08-22T12:31:42.177Z,97982.70
2018-08-22T12:34:09.898Z,97977.77
2018-08-22T12:36:37.544Z,97982.02
2018-08-22T12:39:06.788Z,97979.08
2018-08-22T12:41:34.481Z,97971.52
2018-08-22T12:44:02.143Z,97966.94
2018-08-22T12:46:29.880Z,97961.88
2018-08-22T12:48:57.518Z,97958.91
2018-08-22T12:51:25.120Z,97955.80
2018-08-22T12:53:52.780Z,97950.41
2018-08-22T12:56:20.467Z,97947.00
2018-08-22T12:58:48.075Z,97950.11
2018-08-22T13:01:15.747Z,97953.54
2018-08-22T13:03:43.460Z,97946.30
2018-08-22T13:06:11.078Z,97941.16
2018-08-22T13:08:38.811Z,97943.95
2018-08-22T13:11:06.442Z,97940.06
2018-08-22T13:13:34.163Z,97931.58
2018-08-22T13:16:01.826Z,97934.58
2018-08-22T13:18:29.593Z,97930.42
2018-08-22T13:20:57.206Z,97930.02
2018-08-22T13:23:24.926Z,97928.03
2018-08-22T13:25:52.651Z,97927.80
2018-08-22T13:28:20.260Z,97924.92
2018-08-22T13:30:47.878Z,97924.45
2018-08-22T13:33:15.565Z,97921.34
2018-08-22T13:35:43.222Z,97913.86
2018-08-22T13:38:10.880Z,97913.56
2018-08-22T13:40:38.567Z,97907.49
2018-08-22T13:43:06.198Z,97907.22
2018-08-22T13:45:34.007Z,97899.58
2018-08-22T13:48:01.662Z,97896.93
2018-08-22T13:50:29.355Z,97894.25
2018-08-22T13:52:56.984Z,97889.20
2018-08-22T13:55:24.572Z,97884.53
2018-08-22T13:57:52.192Z,97878.27
2018-08-22T14:00:19.908Z,97878.00
2018-08-22T14:02:47.561Z,97878.07
2018-08-22T14:05:15.191Z,97880.23
2018-08-22T14:07:42.881Z,97878.62
2018-08-22T14:10:10.481Z,97878.12
2018-08-22T14:12:38.086Z,97882.59
2018-08-22T14:15:05.863Z,97877.59
2018-08-22T14:17:33.606Z,97877.06
2018-08-22T14:20:01.252Z,97874.37
2018-08-22T14:22:29.034Z,97878.59
2018-08-22T14:24:56.575Z,97868.34
2018-08-22T14:27:24.182Z,97874.89
2018-08-22T14:29:51.809Z,97865.47
2018-08-22T14:32:19.429Z,97858.09
2018-08-22T14:34:46.999Z,97857.77
2018-08-22T14:37:14.675Z,97856.83
2018-08-22T14:39:42.256Z,97851.81
2018-08-22T14:42:09.894Z,97855.92
2018-08-22T14:44:37.643Z,97851.80
2018-08-22T14:47:05.311Z,97846.67
2018-08-22T14:49:33.067Z,97846.78
2018-08-22T14:52:00.763Z,97847.59
2018-08-22T14:54:28.384Z,97842.67
2018-08-22T14:56:56.059Z,97835.20
2018-08-22T14:59:23.769Z,97839.66
2018-08-22T15:01:51.389Z,97840.84
2018-08-22T15:04:19.016Z,97845.12
2018-08-22T15:06:46.827Z,97841.89
2018-08-22T15:09:17.656Z,97833.73
2018-08-22T15:11:45.247Z,97838.73
2018-08-22T15:14:12.958Z,97830.95
2018-08-22T15:16:40.691Z,97830.72
2018-08-22T15:19:08.356Z,97836.73
2018-08-22T15:21:36.126Z,97831.14
2018-08-22T15:24:03.774Z,97825.45
2018-08-22T15:26:31.408Z,97826.95
2018-08-22T15:28:59.060Z,97819.23
2018-08-22T15:31:26.747Z,97814.36
2018-08-22T15:33:54.460Z,97820.75
2018-08-22T15:36:22.152Z,97814.13
2018-08-22T15:38:49.845Z,97809.69
2018-08-22T15:41:17.840Z,97805.63
2018-08-22T15:43:45.959Z,97802.91
2018-08-22T15:46:13.584Z,97799.28
2018-08-22T15:48:41.323Z,97803.89
2018-08-22T15:51:09.010Z,97794.31
2018-08-22T15:53:36.710Z,97792.78
2018-08-22T15:56:04.430Z,97796.50
2018-08-22T15:58:32.135Z,97794.38
2018-08-22T16:00:59.753Z,97790.70
2018-08-22T16:03:27.391Z,97784.69
2018-08-22T16:05:55.758Z,97775.72
2018-08-22T16:08:24.840Z,97781.40
2018-08-22T16:10:52.498Z,97774.02
2018-08-22T16:13:27.823Z,97781.33
2018-08-22T16:15:56.475Z,97778.31
2018-08-22T16:18:24.228Z,97774.49
2018-08-22T16:20:55.649Z,97772.88
2018-08-22T16:23:26.429Z,97767.27
2018-08-22T16:25:54.816Z,97764.94
2018-08-22T16:28:23.133Z,97762.30
2018-08-22T16:30:57.041Z,97762.84
2018-08-22T16:33:20.047Z,97764.20
2018-08-22T16:35:47.674Z,97768.21
2018-08-22T16:38:15.479Z,97770.34
2018-08-22T16:40:46.349Z,97765.59
2018-08-22T16:43:14.550Z,97760.81
2018-08-22T16:45:47.772Z,97762.59
2018-08-22T16:48:19.402Z,97760.03
2018-08-22T16:50:47.349Z,97763.31
2018-08-22T16:53:14.954Z,97767.16
2018-08-22T16:55:42.682Z,97765.20
2018-08-22T16:58:10.367Z,97768.03
2018-08-22T17:00:43.529Z,97768.19
2018-08-22T17:03:11.188Z,97765.47
2018-08-22T17:05:38.840Z,97766.17
2018-08-22T17:08:06.566Z,97767.81
2018-08-22T17:10:54.165Z,97765.59
2018-08-22T17:13:43.366Z,97764.07
2018-08-22T17:16:11.088Z,97765.36
2018-08-22T17:18:38.788Z,97762.78
2018-08-22T17:21:06.695Z,97760.00
2018-08-22T17:23:34.489Z,97759.92
2018-08-22T17:26:02.095Z,97753.59
2018-08-22T17:28:35.479Z,97753.19
2018-08-22T17:31:03.361Z,97751.91
2018-08-22T17:33:39.471Z,97757.20
2018-08-22T17:36:08.011Z,97763.92
2018-08-22T17:38:35.823Z,97764.50
2018-08-22T17:41:03.500Z,97761.69
2018-08-22T17:43:32.184Z,97766.42
2018-08-22T17:45:59.802Z,97767.65
2018-08-22T17:48:27.480Z,97765.25
2018-08-22T17:50:55.056Z,97767.52
2018-08-22T17:53:22.732Z,97768.08
2018-08-22T17:55:50.548Z,97767.59
2018-08-22T17:58:18.490Z,97774.05
2018-08-22T18:00:46.254Z,97773.52
2018-08-22T18:03:14.171Z,97776.96
2018-08-22T18:05:41.775Z,97783.86
2018-08-22T18:08:09.439Z,97775.11
2018-08-22T18:10:39.935Z,97787.24
2018-08-22T18:13:14.991Z,97790.84
2018-08-22T18:15:43.486Z,97791.63
2018-08-22T18:18:11.343Z,97792.20
2018-08-22T18:20:44.738Z,97791.06
2018-08-22T18:23:12.476Z,97795.00
2018-08-22T18:25:45.401Z,97795.06
2018-08-22T18:28:22.759Z,97801.04
2018-08-22T18:30:50.475Z,97797.55
2018-08-22T18:33:18.239Z,97798.97
2018-08-22T18:35:46.250Z,97802.80
2018-08-22T18:38:14.035Z,97804.89
2018-08-22T18:40:41.770Z,97802.59
2018-08-22T18:43:09.669Z,97797.75
2018-08-22T18:45:47.313Z,97814.93
2018-08-22T18:48:15.029Z,97820.58
2018-08-22T18:50:43.260Z,97821.34
2018-08-22T18:53:11.116Z,97813.30
2018-08-22T18:55:38.797Z,97822.67
2018-08-22T18:58:06.505Z,97820.58
2018-08-22T19:00:35.176Z,97826.47
2018-08-22T19:03:02.887Z,97833.08
2018-08-22T19:05:32.459Z,97830.40
2018-08-22T19:08:12.820Z,97826.78
2018-08-22T19:10:41.684Z,97829.73
2018-08-22T19:13:11.326Z,97827.86
2018-08-22T19:15:39.056Z,97818.22
2018-08-22T19:18:08.671Z,97821.48
2018-08-22T19:20:36.448Z,97815.12
2018-08-22T19:23:04.131Z,97816.78
2018-08-22T19:25:31.945Z,97814.94
2018-08-22T19:28:00.412Z,97819.02
2018-08-22T19:30:28.098Z,97812.58
2018-08-22T19:32:55.735Z,97817.17
2018-08-22T19:35:23.348Z,97816.90
2018-08-22T19:37:55.490Z,97814.63
2018-08-22T19:40:26.213Z,97817.41
2018-08-22T19:42:53.830Z,97817.47
2018-08-22T19:45:21.842Z,97817.61
2018-08-22T19:47:49.675Z,97818.58
2018-08-22T19:50:17.258Z,97809.34
2018-08-22T19:52:44.992Z,97811.19
2018-08-22T19:55:12.611Z,97809.48
2018-08-22T19:57:41.367Z,97808.39
2018-08-22T20:00:12.156Z,97818.98
2018-08-22T20:02:39.737Z,97811.23
2018-08-22T20:05:08.493Z,97818.08
2018-08-22T20:07:36.712Z,97816.38
2018-08-22T20:10:04.425Z,97809.03
2018-08-22T20:12:39.936Z,97814.18
2018-08-22T20:15:07.541Z,97820.08
2018-08-22T20:17:35.398Z,97822.52
2018-08-22T20:20:03.102Z,97816.40
2018-08-22T20:22:36.292Z,97812.74
2018-08-22T20:25:04.323Z,97814.88
2018-08-22T20:27:31.929Z,97817.73
2018-08-22T20:30:04.071Z,97813.59
2018-08-22T20:32:31.711Z,97815.23
2018-08-22T20:35:00.336Z,97816.00
2018-08-22T20:37:28.016Z,97815.29
2018-08-22T20:40:01.047Z,97810.48
2018-08-22T20:42:28.838Z,97804.14
2018-08-22T20:44:56.437Z,97803.39
2018-08-22T20:47:24.091Z,97816.53
2018-08-22T20:49:52.392Z,97816.34
2018-08-22T20:52:20.048Z,97807.48
2018-08-22T20:55:20.091Z,97817.20
2018-08-22T20:57:47.698Z,97820.89
2018-08-22T21:00:16.080Z,97817.41
2018-08-22T21:02:44.131Z,97813.91
2018-08-22T21:05:11.784Z,97813.81
2018-08-22T21:07:39.670Z,97810.72
2018-08-22T21:10:07.472Z,97802.12
2018-08-22T21:12:36.247Z,97813.09
2018-08-22T21:15:03.964Z,97805.71
2018-08-22T21:17:31.572Z,97814.31
2018-08-22T21:19:59.698Z,97817.34
2018-08-22T21:22:28.721Z,97823.00
2018-08-22T21:24:59.583Z,97820.66
2018-08-22T21:27:27.212Z,97817.72
2018-08-22T21:29:54.811Z,97822.91
2018-08-22T21:32:22.463Z,97818.57
2018-08-22T21:34:50.060Z,97819.62
2018-08-22T21:37:25.495Z,97819.29
2018-08-22T21:39:53.117Z,97818.82
2018-08-22T21:42:26.284Z,97808.45
2018-08-22T21:44:53.878Z,97806.36
2018-08-22T21:47:21.558Z,97805.98
2018-08-22T21:49:49.224Z,97806.44
2018-08-22T21:52:17.227Z,97797.50
2018-08-22T21:54:44.975Z,97795.52
2018-08-22T21:57:12.629Z,97801.91
2018-08-22T21:59:40.208Z,97797.13
2018-08-22T22:02:08.955Z,97802.58
2018-08-22T22:04:37.613Z,97796.83
2018-08-22T22:07:06.250Z,97793.03
2018-08-22T22:09:34.335Z,97793.44
2018-08-22T22:12:02.471Z,97797.58
2018-08-22T22:14:33.059Z,97797.77
2018-08-22T22:17:01.670Z,97796.05
2018-08-22T22:19:31.190Z,97792.00
2018-08-22T22:21:59.133Z,97789.18
2018-08-22T22:24:26.820Z,97790.32
2018-08-22T22:26:54.516Z,97795.77
2018-08-22T22:29:25.382Z,97787.19
2018-08-22T22:31:53.000Z,97789.81
2018-08-22T22:34:20.630Z,97784.27
2018-08-22T22:36:48.300Z,97780.88
2018-08-22T22:39:32.505Z,97779.74
2018-08-22T22:42:00.095Z,97774.74
2018-08-22T22:44:27.791Z,97773.98
2018-08-22T22:46:55.463Z,97778.03
2018-08-22T22:49:23.132Z,97773.61
2018-08-22T22:51:50.962Z,97773.78
2018-08-22T22:54:28.734Z,97773.11
2018-08-22T22:56:56.430Z,97772.28
2018-08-22T22:59:23.972Z,97768.31
2018-08-22T23:01:51.695Z,97768.11
2018-08-22T23:04:19.502Z,97762.26
2018-08-22T23:06:47.181Z,97757.64
2018-08-22T23:09:14.879Z,97752.48
2018-08-22T23:11:42.435Z,97748.34
2018-08-22T23:14:10.223Z,97748.80
2018-08-22T23:16:37.984Z,97751.04
2018-08-22T23:19:05.602Z,97739.53
2018-08-22T23:21:33.139Z,97746.49
2018-08-22T23:24:05.578Z,97741.49
2018-08-22T23:26:33.174Z,97751.28
2018-08-22T23:29:00.718Z,97743.01
2018-08-22T23:31:28.379Z,97748.56
2018-08-22T23:33:55.990Z,97746.39
2018-08-22T23:36:23.531Z,97739.05
2018-08-22T23:38:51.140Z,97732.81
2018-08-22T23:41:18.745Z,97726.68
2018-08-22T23:43:50.728Z,97732.40
2018-08-22T23:46:18.595Z,97721.65
2018-08-22T23:48:54.030Z,97723.91
2018-08-22T23:51:21.699Z,97723.05
2018-08-22T23:53:49.454Z,97716.55
2018-08-22T23:56:24.476Z,97716.98
2018-08-22T23:58:52.604Z,97721.16
